• Join FlightAware (Why Join?)
  • Login
  • US Flag 
01:04AM EDT


 

Airport Tracker/Info


-or-


 

Live Flight TrackerFlight Track Log ✈ SWA1245 ✈ 07-May-2013 ✈ KLAX - KSTL

Flight Track Log - Related Links

Times and Time Zones

All times are in EDT time to prevent confusion due to time zone crossing. See the SWA1245 flight status page for this flight to view local times or setup timezone preferences in your user account.

Time Position Orientation Groundspeed Altitude Reporting Facility
EDT Latitude Longitude Course Direction KTS MPH feet Rate Location/Type
11:47AM 33.9361 -118.5539 263° West 230 265 4,600  Level Los Angeles Center
11:48AM 33.8858 -118.5908 211° Southwest 266 306 7,600 2,760 Climbing Los Angeles Center
11:49AM 33.8569 -118.4978 110° East 288 331 10,400 2,400 Climbing Los Angeles Center
11:50AM 33.9117 -118.4364 43° Northeast 295 339 12,600 1,740 Climbing Los Angeles Center
11:51AM 33.9764 -118.3578 45° Northeast 343 395 14,100 1,680 Climbing Los Angeles Center
11:52AM 34.0347 -118.2533 56° Northeast 371 427 16,100 1,920 Climbing Los Angeles Center
11:53AM 34.0964 -118.1453 55° Northeast 387 445 18,100 1,800 Climbing Los Angeles Center
11:54AM 34.1597 -118.0339 55° Northeast 397 457 19,800 1,560 Climbing Los Angeles Center
11:55AM 34.2261 -117.9164 56° Northeast 415 478 21,400 1,440 Climbing Los Angeles Center
11:56AM 34.2939 -117.7936 56° Northeast 432 497 22,800 1,440 Climbing Los Angeles Center
11:57AM 34.3811 -117.6378 56° Northeast 459 528 24,400 1,380 Climbing Los Angeles Center
11:58AM 34.4497 -117.5133 56° Northeast 471 542 25,700 1,260 Climbing Los Angeles Center
11:59AM 34.5253 -117.3767 56° Northeast 487 560 27,000 1,080 Climbing Los Angeles Center
12:00PM 34.6014 -117.2375 56° Northeast 497 572 28,000 1,260 Climbing Los Angeles Center
12:01PM 34.6950 -117.0675 56° Northeast 509 586 29,700 1,500 Climbing Los Angeles Center
12:02PM 34.7714 -116.9267 57° Northeast 506 582 31,100 1,080 Climbing Los Angeles Center
12:03PM 34.8472 -116.7869 56° Northeast 500 575 32,000 960 Climbing Los Angeles Center
12:04PM 34.9244 -116.6444 57° Northeast 506 582 33,100 1,200 Climbing Los Angeles Center
12:05PM 35.0111 -116.5167 50° Northeast 498 573 34,500 900 Climbing Los Angeles Center
12:06PM 35.1039 -116.3986 46° Northeast 489 563 35,000 240 Climbing Los Angeles Center
12:07PM 35.2211 -116.2547 45° Northeast 504 580 35,000  Level Los Angeles Center
12:09PM 35.3156 -116.1306 47° Northeast 501 577 35,000  Level Los Angeles Center
12:10PM 35.4122 -116.0094 46° Northeast 501 577 35,000  Level Los Angeles Center
12:11PM 35.5094 -115.8914 45° Northeast 495 570 35,000  Level Los Angeles Center
12:12PM 35.6086 -115.7658 46° Northeast 484 557 35,000  Level Los Angeles Center
12:13PM 35.7006 -115.6464 47° Northeast 483 556 35,000  Level Los Angeles Center
12:14PM 35.7917 -115.4864 55° Northeast 482 555 35,000  Level Los Angeles Center
12:15PM 35.8392 -115.3375 68° East 476 548 35,000  Level Los Angeles Center
12:16PM 35.8689 -115.1833 77° East 469 540 35,000  Level Los Angeles Center
12:17PM 35.9025 -115.0272 75° East 473 544 35,000  Level Los Angeles Center
12:18PM 35.9336 -114.8697 76° East 475 547 35,000  Level Los Angeles Center
12:19PM 35.9656 -114.7108 76° East 478 550 35,000  Level Los Angeles Center
12:20PM 36.0044 -114.5200 76° East 481 554 35,000  Level Los Angeles Center
12:21PM 36.0375 -114.3592 76° East 485 558 35,000  Level Los Angeles Center
12:22PM 36.0694 -114.1956 76° East 489 563 35,000  Level Los Angeles Center
12:23PM 36.1042 -114.0314 75° East 492 566 35,000  Level Los Angeles Center
12:24PM 36.1361 -113.8644 77° East 497 572 35,000  Level Los Angeles Center
12:25PM 36.1686 -113.6983 76° East 498 573 35,000  Level Los Angeles Center
12:26PM 36.2072 -113.4978 77° East 499 574 35,000  Level Los Angeles Center
12:27PM 36.2400 -113.3306 76° East 501 577 35,000  Level Los Angeles Center
12:28PM 36.2697 -113.1761 77° East 501 577 35,000  Level Los Angeles Center
12:29PM 36.3081 -112.9742 77° East 504 580 35,000  Level Los Angeles Center
12:30PM 36.3397 -112.8067 77° East 503 579 35,000  Level Los Angeles Center
12:31PM 36.3703 -112.6397 77° East 500 575 35,000  Level Los Angeles Center
12:32PM 36.4022 -112.4711 77° East 504 580 35,000  Level Los Angeles Center
12:33PM 36.4325 -112.3047 77° East 500 575 35,000  Level Los Angeles Center
12:34PM 36.4639 -112.1356 77° East 503 579 35,000  Level Los Angeles Center
12:35PM 36.5011 -111.9314 77° East 508 585 35,000  Level Los Angeles Center
12:37PM 36.5317 -111.7592 77° East 511 588 35,000  Level Denver Center
12:38PM 36.5611 -111.5875 78° East 512 589 35,000  Level Denver Center
12:39PM 36.5989 -111.3792 77° East 515 593 35,000  Level Denver Center
12:40PM 36.6303 -111.2044 77° East 519 597 35,000  Level Denver Center
12:41PM 36.6597 -111.0311 78° East 516 594 35,000  Level Denver Center
12:42PM 36.6889 -110.8578 78° East 515 593 35,000  Level Denver Center
12:43PM 36.7161 -110.6847 79° East 513 590 35,000  Level Denver Center
12:44PM 36.7447 -110.5094 78° East 517 595 35,000  Level Denver Center
12:45PM 36.7797 -110.2997 78° East 518 596 35,000  Level Denver Center
12:46PM 36.8072 -110.1272 79° East 520 598 35,000  Level Denver Center
12:47PM 36.8397 -109.9308 78° East 516 594 35,000  Level Denver Center
12:48PM 36.8672 -109.7631 78° East 515 593 35,000  Level Denver Center
12:49PM 36.8925 -109.5944 79° East 515 593 35,000  Level Denver Center
12:50PM 36.9239 -109.3981 79° East 515 593 35,000  Level Denver Center
12:51PM 36.9497 -109.2300 79° East 514 592 35,000  Level Denver Center
12:52PM 36.9803 -109.0344 79° East 512 589 35,000  Level Denver Center
12:53PM 37.0050 -108.8675 79° East 509 586 35,000  Level Denver Center
12:54PM 37.0347 -108.6717 79° East 511 588 35,000  Level Denver Center
12:55PM 37.0589 -108.5042 80° East 511 588 35,000  Level Denver Center
12:56PM 37.0839 -108.3392 79° East 505 581 35,000  Level Denver Center
12:57PM 37.1050 -108.1425 82° East 510 587 35,000  Level Denver Center
12:58PM 37.1094 -107.9464 88° East 504 580 35,000  Level Denver Center
12:59PM 37.1119 -107.7806 89° East 499 574 35,000  Level Denver Center
01:00PM 37.1172 -107.5844 88° East 502 578 35,000  Level Denver Center
01:01PM 37.1194 -107.4172 89° East 500 575 35,000  Level Denver Center
01:02PM 37.1447 -107.2514 79° East 505 581 35,000  Level Denver Center
01:03PM 37.1717 -107.0586 80° East 503 579 35,000  Level Denver Center
01:04PM 37.1947 -106.8944 80° East 499 574 35,000  Level Denver Center
01:06PM 37.2208 -106.7000 80° East 505 581 35,000  Level Denver Center
01:07PM 37.2444 -106.5364 80° East 500 575 35,000  Level Denver Center
01:08PM 37.2719 -106.3453 80° East 498 573 35,000  Level Denver Center
01:09PM 37.2939 -106.1808 80° East 499 574 35,000  Level Denver Center
01:10PM 37.3181 -105.9894 81° East 498 573 35,000  Level Denver Center
01:11PM 37.3392 -105.8242 81° East 500 575 35,000  Level Denver Center
01:12PM 37.3647 -105.6314 80° East 500 575 35,000  Level Denver Center
01:13PM 37.3878 -105.4683 80° East 498 573 35,000  Level Denver Center
01:14PM 37.4100 -105.2775 82° East 494 568 35,000  Level Denver Center
01:15PM 37.4314 -105.1258 80° East 495 570 35,000  Level Denver Center
01:16PM 37.4547 -104.9356 81° East 495 570 35,000  Level Denver Center
01:17PM 37.4756 -104.7728 81° East 492 566 35,000  Level Denver Center
01:18PM 37.4975 -104.5833 82° East 490 564 35,000  Level Denver Center
01:19PM 37.5169 -104.4222 81° East 487 560 35,000  Level Denver Center
01:20PM 37.5386 -104.2333 82° East 488 562 35,000  Level Denver Center
01:21PM 37.5569 -104.0792 81° East 488 562 35,000  Level Denver Center
01:22PM 37.5786 -103.8975 81° East 489 563 35,000  Level Denver Center
01:23PM 37.5994 -103.7086 82° East 486 559 35,000  Level Denver Center
01:24PM 37.6181 -103.5467 82° East 487 560 35,000  Level Denver Center
01:25PM 37.6386 -103.3567 82° East 489 563 35,000  Level Denver Center
01:26PM 37.6564 -103.1939 82° East 490 564 35,000  Level Denver Center
01:27PM 37.6769 -103.0044 82° East 488 562 35,000  Level Denver Center
01:28PM 37.6936 -102.8417 83° East 489 563 35,000  Level Denver Center
01:29PM 37.7139 -102.6511 82° East 490 564 35,000  Level Denver Center
01:30PM 37.7311 -102.4881 82° East 490 564 35,000  Level Denver Center
01:31PM 37.7475 -102.3147 83° East 490 564 35,000  Level Denver Center
01:32PM 37.7681 -102.1247 82° East 490 564 35,000  Level Denver Center
01:33PM 37.7839 -101.9608 83° East 491 565 35,000  Level Denver Center
01:34PM 37.7992 -101.7978 83° East 488 562 35,000  Level Denver Center
01:35PM 37.8167 -101.6064 83° East 489 563 35,000  Level Denver Center
01:36PM 37.8253 -101.5244 82° East 489 563 35,000  Level Kansas City Center
01:37PM 37.8408 -101.3611 83° East 487 560 35,000  Level Kansas City Center
01:38PM 37.8578 -101.1686 84° East 489 563 35,000  Level Kansas City Center
01:39PM 37.8731 -101.0044 83° East 488 562 35,000  Level Kansas City Center
01:40PM 37.8822 -100.8950 84° East 486 559 35,000  Level Denver Center
01:40PM 37.8897 -100.8128 83° East 484 557 35,000  Level Kansas City Center
01:41PM 37.9039 -100.6489 84° East 485 558 35,000  Level Kansas City Center
01:42PM 37.9178 -100.4864 84° East 484 557 35,000  Level Kansas City Center
01:43PM 37.9325 -100.2975 84° East 482 555 35,000  Level Kansas City Center
01:44PM 37.9464 -100.1350 84° East 483 556 35,000  Level Kansas City Center
01:45PM 37.9617 -99.9461 84° East 483 556 35,000  Level Kansas City Center
01:46PM 37.9744 -99.7844 84° East 482 555 35,000  Level Kansas City Center
01:47PM 37.9883 -99.5961 85° East 481 554 35,000  Level Kansas City Center
01:48PM 38.0011 -99.4353 84° East 478 550 35,000  Level Kansas City Center
01:49PM 38.0142 -99.2708 84° East 473 544 35,000  Level Kansas City Center
01:50PM 38.0264 -99.1081 85° East 465 535 35,000  Level Kansas City Center
01:51PM 38.0378 -98.9467 85° East 460 529 35,000  Level Kansas City Center
01:52PM 38.0489 -98.7867 85° East 457 526 35,000  Level Kansas City Center
01:54PM 38.0636 -98.5939 84° East 456 525 35,000  Level Kansas City Center
01:55PM 38.0758 -98.4336 84° East 456 525 35,000  Level Kansas City Center
01:56PM 38.0853 -98.2753 86° East 450 518 35,000  Level Kansas City Center
01:57PM 38.0953 -98.1158 85° East 449 517 35,000  Level Kansas City Center
01:58PM 38.1058 -97.9567 85° East 446 513 35,000  Level Kansas City Center
01:59PM 38.1169 -97.7578 86° East 441 507 35,000  Level Kansas City Center
02:00PM 38.1267 -97.6036 85° East 439 505 35,000  Level Kansas City Center
02:01PM 38.1356 -97.4558 86° East 438 504 35,000  Level Kansas City Center
02:02PM 38.1453 -97.3000 85° East 440 506 35,000  Level Kansas City Center
02:03PM 38.1533 -97.1453 86° East 439 505 35,000  Level Kansas City Center
02:04PM 38.1636 -96.9594 86° East 437 503 35,000  Level Kansas City Center
02:05PM 38.1722 -96.8056 86° East 437 503 35,000  Level Kansas City Center
02:06PM 38.1806 -96.6522 86° East 435 501 35,000  Level Kansas City Center
02:07PM 38.1883 -96.4992 86° East 434 499 35,000  Level Kansas City Center
02:08PM 38.1961 -96.3322 87° East 434 499 35,000  Level Kansas City Center
02:09PM 38.2036 -96.1725 87° East 433 498 35,000  Level Kansas City Center
02:10PM 38.2106 -96.0242 87° East 438 504 35,000  Level Kansas City Center
02:11PM 38.2181 -95.8506 87° East 441 507 35,000  Level Kansas City Center
02:12PM 38.2250 -95.7033 87° East 439 505 35,000  Level Kansas City Center
02:13PM 38.2322 -95.5314 87° East 436 502 35,000  Level Kansas City Center
02:14PM 38.2381 -95.3833 87° East 438 504 35,000  Level Kansas City Center
02:15PM 38.2453 -95.2092 87° East 441 507 35,000  Level Kansas City Center
02:16PM 38.2514 -95.0625 87° East 440 506 35,000  Level Kansas City Center
02:17PM 38.2569 -94.9158 87° East 438 504 35,000  Level Kansas City Center
02:18PM 38.2639 -94.7444 87° East 436 502 35,000  Level Kansas City Center
02:20PM 38.2686 -94.5964 88° East 437 503 35,000  Level Kansas City Center
02:21PM 38.2833 -94.4253 84° East 439 505 35,000  Level Kansas City Center
02:22PM 38.3067 -94.2786 78° East 443 510 35,000 -540 Level Kansas City Center
02:23PM 38.3356 -94.1081 78° East 442 509 34,000 -960 Descending Kansas City Center
02:24PM 38.3594 -93.9583 78° East 447 514 33,100 -1,020 Descending Kansas City Center
02:25PM 38.3883 -93.7822 78° East 452 520 32,000 -1,020 Descending Kansas City Center
02:26PM 38.4114 -93.6322 79° East 453 521 31,100 -540 Descending Kansas City Center
02:27PM 38.4389 -93.4578 79° East 451 519 31,000 -60 Descending Kansas City Center
02:28PM 38.4625 -93.3086 79° East 445 512 31,000  Level Kansas City Center
02:29PM 38.4853 -93.1519 79° East 446 513 31,000  Level Kansas City Center
02:30PM 38.5106 -92.9947 78° East 448 516 31,000  Level Kansas City Center
02:31PM 38.5342 -92.8353 79° East 452 520 31,000  Level Kansas City Center
02:32PM 38.5575 -92.6750 79° East 455 524 31,000  Level Kansas City Center
02:33PM 38.5858 -92.4836 79° East 455 524 31,000 -300 Level Kansas City Center
02:34PM 38.6092 -92.3239 79° East 454 522 30,400 -840 Descending Kansas City Center
02:35PM 38.6308 -92.1694 80° East 445 512 29,300 -1,020 Descending Kansas City Center
02:36PM 38.6519 -92.0181 80° East 435 501 28,300 -1,440 Descending Kansas City Center
02:37PM 38.6731 -91.8681 80° East 430 495 26,400 -2,040 Descending Kansas City Center
02:38PM 38.6925 -91.7183 81° East 427 491 24,200 -2,100 Descending Kansas City Center
02:39PM 38.6917 -91.5761 90° East 411 473 22,100 -1,980 Descending Kansas City Center
02:40PM 38.6917 -91.4383 90° East 398 458 20,200 -1,860 Descending Kansas City Center
02:41PM 38.6925 -91.3036 90° East 391 450 18,300 -2,040 Descending Kansas City Center
02:42PM 38.6944 -91.1450 89° East 379 436 16,000 -2,040 Descending Kansas City Center
02:43PM 38.6986 -91.0225 87° East 355 409 14,200 -1,800 Descending Kansas City Center
02:44PM 38.7017 -90.9067 88° East 336 387 12,400 -1,680 Descending Kansas City Center
02:45PM 38.7142 -90.7947 82° East 323 372 10,800 -1,260 Descending Kansas City Center
02:46PM 38.7069 -90.6781 94° East 329 379 9,900 -1,080 Descending Kansas City Center
02:47PM 38.7125 -90.5764 86° East 297 342 8,600 -1,440 Descending Kansas City Center
02:48PM 38.6939 -90.4833 104° East 286 329 7,000 -1,680 Descending Kansas City Center
02:49PM 38.6456 -90.3886 123° Southeast 279 321 5,200 -1,740 Descending Kansas City Center
02:50PM 38.6222 -90.3119 111° Southeast 257 296 3,500 -1,440 Descending Kansas City Center
02:51PM 38.6667 -90.2806 29° Northeast 214 246 2,300 -1,020 Descending Kansas City Center
02:52PM 38.7181 -90.2944 348° North 181 208 1,500 -780 Descending Kansas City Center
02:54PM 38.7392 -90.3389 301° West 160 184 700 -780 Descending Kansas City Center